sensor_id;sensor_type;location;lat;lon;timestamp;pressure;altitude;pressure_sealevel;temperature;humidity
27144;BME280;14672;50.250;8.312;2023-07-13T00:01:51;98784.38;;;20.50;52.62
27144;BME280;14672;50.250;8.312;2023-07-13T00:04:20;98806.44;;;20.48;52.88
27144;BME280;14672;50.250;8.312;2023-07-13T00:06:47;98803.31;;;20.40;53.33
27144;BME280;14672;50.250;8.312;2023-07-13T00:09:14;98794.88;;;20.53;53.17
27144;BME280;14672;50.250;8.312;2023-07-13T00:11:41;98790.72;;;20.32;53.57
27144;BME280;14672;50.250;8.312;2023-07-13T00:14:08;98786.03;;;20.29;53.92
27144;BME280;14672;50.250;8.312;2023-07-13T00:16:36;98795.94;;;20.23;54.11
27144;BME280;14672;50.250;8.312;2023-07-13T00:19:03;98789.97;;;19.98;54.76
27144;BME280;14672;50.250;8.312;2023-07-13T00:21:29;98798.06;;;20.22;53.66
27144;BME280;14672;50.250;8.312;2023-07-13T00:23:55;98785.50;;;20.14;53.93
27144;BME280;14672;50.250;8.312;2023-07-13T00:26:21;98797.28;;;20.10;54.04
27144;BME280;14672;50.250;8.312;2023-07-13T00:28:47;98799.13;;;19.97;54.49
27144;BME280;14672;50.250;8.312;2023-07-13T00:31:13;98802.00;;;19.91;54.44
27144;BME280;14672;50.250;8.312;2023-07-13T00:33:40;98799.66;;;20.01;54.14
27144;BME280;14672;50.250;8.312;2023-07-13T00:36:08;98809.91;;;19.85;54.64
27144;BME280;14672;50.250;8.312;2023-07-13T00:38:34;98808.03;;;19.88;54.96
27144;BME280;14672;50.250;8.312;2023-07-13T00:41:01;98806.75;;;19.94;54.55
27144;BME280;14672;50.250;8.312;2023-07-13T00:43:29;98801.75;;;19.73;54.70
27144;BME280;14672;50.250;8.312;2023-07-13T00:48:33;98812.75;;;19.80;54.97
27144;BME280;14672;50.250;8.312;2023-07-13T00:51:01;98805.16;;;19.54;55.11
27144;BME280;14672;50.250;8.312;2023-07-13T00:53:29;98815.13;;;19.64;54.78
27144;BME280;14672;50.250;8.312;2023-07-13T00:55:58;98813.81;;;19.65;55.10
27144;BME280;14672;50.250;8.312;2023-07-13T00:58:25;98822.19;;;19.52;55.77
27144;BME280;14672;50.250;8.312;2023-07-13T01:00:52;98814.78;;;19.40;55.50
27144;BME280;14672;50.250;8.312;2023-07-13T01:03:19;98815.03;;;19.37;55.39
27144;BME280;14672;50.250;8.312;2023-07-13T01:05:48;98820.00;;;19.36;55.25
27144;BME280;14672;50.250;8.312;2023-07-13T01:08:15;98818.16;;;19.28;55.08
27144;BME280;14672;50.250;8.312;2023-07-13T01:10:51;98824.44;;;19.20;55.92
27144;BME280;14672;50.250;8.312;2023-07-13T01:13:17;98827.06;;;19.18;55.76
27144;BME280;14672;50.250;8.312;2023-07-13T01:15:46;98821.56;;;19.26;55.44
27144;BME280;14672;50.250;8.312;2023-07-13T01:18:18;98827.28;;;19.09;55.80
27144;BME280;14672;50.250;8.312;2023-07-13T01:21:03;98828.06;;;19.10;55.87
27144;BME280;14672;50.250;8.312;2023-07-13T01:23:30;98822.81;;;19.03;56.01
27144;BME280;14672;50.250;8.312;2023-07-13T01:25:58;98832.75;;;19.02;56.44
27144;BME280;14672;50.250;8.312;2023-07-13T01:28:26;98824.66;;;19.06;56.15
27144;BME280;14672;50.250;8.312;2023-07-13T01:30:55;98832.47;;;19.00;56.04
27144;BME280;14672;50.250;8.312;2023-07-13T01:33:21;98828.50;;;18.92;56.20
27144;BME280;14672;50.250;8.312;2023-07-13T01:35:47;98823.53;;;18.87;56.35
27144;BME280;14672;50.250;8.312;2023-07-13T01:38:19;98813.38;;;19.02;55.69
27144;BME280;14672;50.250;8.312;2023-07-13T01:40:50;98821.19;;;18.91;56.42
27144;BME280;14672;50.250;8.312;2023-07-13T01:43:16;98812.03;;;18.87;56.26
27144;BME280;14672;50.250;8.312;2023-07-13T01:45:42;98824.53;;;18.84;56.42
27144;BME280;14672;50.250;8.312;2023-07-13T01:48:10;98806.81;;;18.91;56.00
27144;BME280;14672;50.250;8.312;2023-07-13T01:50:36;98816.16;;;18.74;56.57
27144;BME280;14672;50.250;8.312;2023-07-13T01:53:03;98810.69;;;18.82;56.51
27144;BME280;14672;50.250;8.312;2023-07-13T01:55:29;98815.09;;;18.77;56.27
27144;BME280;14672;50.250;8.312;2023-07-13T01:57:56;98811.19;;;18.75;56.75
27144;BME280;14672;50.250;8.312;2023-07-13T02:00:22;98811.94;;;18.70;56.24
27144;BME280;14672;50.250;8.312;2023-07-13T02:02:48;98813.66;;;18.51;56.81
27144;BME280;14672;50.250;8.312;2023-07-13T02:05:14;98820.28;;;18.62;56.42
27144;BME280;14672;50.250;8.312;2023-07-13T02:07:40;98828.53;;;18.49;56.48
27144;BME280;14672;50.250;8.312;2023-07-13T02:10:08;98823.34;;;18.53;56.71
27144;BME280;14672;50.250;8.312;2023-07-13T02:12:36;98815.44;;;18.43;57.06
27144;BME280;14672;50.250;8.312;2023-07-13T02:15:03;98819.63;;;18.47;57.12
27144;BME280;14672;50.250;8.312;2023-07-13T02:17:29;98831.13;;;18.47;57.32
27144;BME280;14672;50.250;8.312;2023-07-13T02:19:55;98833.78;;;18.51;56.90
27144;BME280;14672;50.250;8.312;2023-07-13T02:22:22;98831.31;;;18.33;56.98
27144;BME280;14672;50.250;8.312;2023-07-13T02:24:49;98843.09;;;18.35;57.08
27144;BME280;14672;50.250;8.312;2023-07-13T02:27:14;98838.88;;;18.30;56.76
27144;BME280;14672;50.250;8.312;2023-07-13T02:29:40;98839.06;;;18.21;57.08
27144;BME280;14672;50.250;8.312;2023-07-13T02:32:06;98836.66;;;18.14;57.13
27144;BME280;14672;50.250;8.312;2023-07-13T02:34:32;98841.69;;;18.19;56.50
27144;BME280;14672;50.250;8.312;2023-07-13T02:36:58;98838.69;;;18.08;56.63
27144;BME280;14672;50.250;8.312;2023-07-13T02:39:24;98834.34;;;18.18;56.21
27144;BME280;14672;50.250;8.312;2023-07-13T02:41:49;98840.03;;;18.07;56.56
27144;BME280;14672;50.250;8.312;2023-07-13T02:44:15;98841.16;;;18.20;56.49
27144;BME280;14672;50.250;8.312;2023-07-13T02:46:41;98831.84;;;18.00;56.80
27144;BME280;14672;50.250;8.312;2023-07-13T02:49:07;98831.41;;;18.12;56.55
27144;BME280;14672;50.250;8.312;2023-07-13T02:51:33;98832.19;;;18.07;56.49
27144;BME280;14672;50.250;8.312;2023-07-13T02:54:04;98835.81;;;18.08;56.39
27144;BME280;14672;50.250;8.312;2023-07-13T02:56:31;98834.63;;;17.89;57.09
27144;BME280;14672;50.250;8.312;2023-07-13T02:58:57;98833.34;;;17.90;57.33
27144;BME280;14672;50.250;8.312;2023-07-13T03:01:24;98843.38;;;17.74;57.28
27144;BME280;14672;50.250;8.312;2023-07-13T03:03:51;98828.22;;;17.73;57.78
27144;BME280;14672;50.250;8.312;2023-07-13T03:06:18;98833.81;;;17.82;57.26
27144;BME280;14672;50.250;8.312;2023-07-13T03:08:45;98835.41;;;17.89;57.26
27144;BME280;14672;50.250;8.312;2023-07-13T03:11:18;98827.59;;;17.90;57.21
27144;BME280;14672;50.250;8.312;2023-07-13T03:13:44;98837.72;;;17.85;57.30
27144;BME280;14672;50.250;8.312;2023-07-13T03:16:11;98835.03;;;17.76;57.04
27144;BME280;14672;50.250;8.312;2023-07-13T03:18:38;98848.81;;;17.66;57.05
27144;BME280;14672;50.250;8.312;2023-07-13T03:21:05;98848.75;;;17.61;56.98
27144;BME280;14672;50.250;8.312;2023-07-13T03:23:31;98844.09;;;17.63;57.30
27144;BME280;14672;50.250;8.312;2023-07-13T03:26:14;98846.22;;;17.48;57.31
27144;BME280;14672;50.250;8.312;2023-07-13T03:28:40;98854.84;;;17.48;57.55
27144;BME280;14672;50.250;8.312;2023-07-13T03:31:12;98858.13;;;17.35;58.28
27144;BME280;14672;50.250;8.312;2023-07-13T03:33:38;98851.47;;;17.50;57.85
27144;BME280;14672;50.250;8.312;2023-07-13T03:36:06;98854.59;;;17.46;57.59
27144;BME280;14672;50.250;8.312;2023-07-13T03:38:32;98859.19;;;17.38;58.03
27144;BME280;14672;50.250;8.312;2023-07-13T03:40:58;98855.06;;;17.45;57.89
27144;BME280;14672;50.250;8.312;2023-07-13T03:43:24;98863.66;;;17.39;58.18
27144;BME280;14672;50.250;8.312;2023-07-13T03:45:50;98867.47;;;17.30;58.12
27144;BME280;14672;50.250;8.312;2023-07-13T03:48:16;98874.66;;;17.20;58.05
27144;BME280;14672;50.250;8.312;2023-07-13T03:50:42;98870.25;;;17.25;57.69
27144;BME280;14672;50.250;8.312;2023-07-13T03:53:07;98882.06;;;17.27;57.93
27144;BME280;14672;50.250;8.312;2023-07-13T03:55:33;98888.72;;;17.38;57.90
27144;BME280;14672;50.250;8.312;2023-07-13T03:58:22;98888.78;;;17.24;58.20
27144;BME280;14672;50.250;8.312;2023-07-13T04:00:47;98881.03;;;17.30;58.22
27144;BME280;14672;50.250;8.312;2023-07-13T04:03:13;98880.72;;;17.28;57.93
27144;BME280;14672;50.250;8.312;2023-07-13T04:05:38;98885.34;;;17.20;58.26
27144;BME280;14672;50.250;8.312;2023-07-13T04:08:06;98884.91;;;17.27;58.45
27144;BME280;14672;50.250;8.312;2023-07-13T04:10:32;98887.94;;;17.18;58.36
27144;BME280;14672;50.250;8.312;2023-07-13T04:12:58;98888.94;;;17.35;57.37
27144;BME280;14672;50.250;8.312;2023-07-13T04:15:23;98883.91;;;17.30;57.31
27144;BME280;14672;50.250;8.312;2023-07-13T04:17:49;98887.03;;;17.32;57.70
27144;BME280;14672;50.250;8.312;2023-07-13T04:20:15;98890.47;;;17.36;57.30
27144;BME280;14672;50.250;8.312;2023-07-13T04:22:41;98879.75;;;17.31;57.24
27144;BME280;14672;50.250;8.312;2023-07-13T04:25:07;98889.06;;;17.26;57.60
27144;BME280;14672;50.250;8.312;2023-07-13T04:27:33;98882.03;;;17.47;57.30
27144;BME280;14672;50.250;8.312;2023-07-13T04:29:58;98895.38;;;17.30;57.77
27144;BME280;14672;50.250;8.312;2023-07-13T04:32:24;98889.28;;;17.43;57.79
27144;BME280;14672;50.250;8.312;2023-07-13T04:34:50;98887.47;;;17.45;57.64
27144;BME280;14672;50.250;8.312;2023-07-13T04:37:20;98888.13;;;17.34;57.50
27144;BME280;14672;50.250;8.312;2023-07-13T04:39:48;98897.25;;;17.33;57.54
27144;BME280;14672;50.250;8.312;2023-07-13T04:42:14;98889.66;;;17.56;57.65
27144;BME280;14672;50.250;8.312;2023-07-13T04:44:39;98882.59;;;17.51;57.88
27144;BME280;14672;50.250;8.312;2023-07-13T04:47:08;98884.00;;;17.61;57.68
27144;BME280;14672;50.250;8.312;2023-07-13T04:49:34;98883.84;;;17.70;57.47
27144;BME280;14672;50.250;8.312;2023-07-13T04:51:59;98886.72;;;17.70;58.13
27144;BME280;14672;50.250;8.312;2023-07-13T04:54:25;98893.63;;;17.84;57.79
27144;BME280;14672;50.250;8.312;2023-07-13T04:56:51;98894.25;;;17.94;57.82
27144;BME280;14672;50.250;8.312;2023-07-13T04:59:17;98886.25;;;18.03;57.39
27144;BME280;14672;50.250;8.312;2023-07-13T05:01:43;98888.84;;;18.01;57.77
27144;BME280;14672;50.250;8.312;2023-07-13T05:04:08;98890.09;;;17.95;58.13
27144;BME280;14672;50.250;8.312;2023-07-13T05:06:34;98890.44;;;18.08;57.52
27144;BME280;14672;50.250;8.312;2023-07-13T05:09:00;98888.19;;;18.17;57.12
27144;BME280;14672;50.250;8.312;2023-07-13T05:11:25;98893.22;;;18.28;57.17
27144;BME280;14672;50.250;8.312;2023-07-13T05:13:51;98891.44;;;18.30;57.35
27144;BME280;14672;50.250;8.312;2023-07-13T05:16:17;98891.69;;;18.27;56.88
27144;BME280;14672;50.250;8.312;2023-07-13T05:18:42;98896.22;;;18.39;56.94
27144;BME280;14672;50.250;8.312;2023-07-13T05:21:10;98896.47;;;18.41;56.98
27144;BME280;14672;50.250;8.312;2023-07-13T05:23:37;98903.25;;;18.38;57.63
27144;BME280;14672;50.250;8.312;2023-07-13T05:26:04;98893.13;;;18.48;57.64
27144;BME280;14672;50.250;8.312;2023-07-13T05:28:31;98892.66;;;18.55;56.68
27144;BME280;14672;50.250;8.312;2023-07-13T05:30:57;98899.06;;;18.70;56.92
27144;BME280;14672;50.250;8.312;2023-07-13T05:33:23;98896.75;;;18.74;56.71
27144;BME280;14672;50.250;8.312;2023-07-13T05:35:49;98897.59;;;18.86;56.80
27144;BME280;14672;50.250;8.312;2023-07-13T05:38:15;98898.13;;;18.90;57.33
27144;BME280;14672;50.250;8.312;2023-07-13T05:40:47;98899.22;;;18.98;56.93
27144;BME280;14672;50.250;8.312;2023-07-13T05:43:13;98893.75;;;19.06;56.36
27144;BME280;14672;50.250;8.312;2023-07-13T05:45:39;98896.94;;;19.19;56.59
27144;BME280;14672;50.250;8.312;2023-07-13T05:48:05;98896.75;;;19.34;56.31
27144;BME280;14672;50.250;8.312;2023-07-13T05:50:31;98896.81;;;19.45;56.92
27144;BME280;14672;50.250;8.312;2023-07-13T05:52:57;98901.78;;;19.44;56.70
27144;BME280;14672;50.250;8.312;2023-07-13T05:55:23;98896.59;;;19.59;55.98
27144;BME280;14672;50.250;8.312;2023-07-13T05:57:49;98891.38;;;19.75;55.87
27144;BME280;14672;50.250;8.312;2023-07-13T06:00:15;98894.53;;;19.88;55.16
27144;BME280;14672;50.250;8.312;2023-07-13T06:02:41;98898.75;;;20.03;54.53
27144;BME280;14672;50.250;8.312;2023-07-13T06:05:08;98895.63;;;20.12;54.25
27144;BME280;14672;50.250;8.312;2023-07-13T06:07:33;98903.53;;;20.29;53.99
27144;BME280;14672;50.250;8.312;2023-07-13T06:09:59;98907.19;;;20.40;53.12
27144;BME280;14672;50.250;8.312;2023-07-13T06:12:27;98906.38;;;20.51;52.28
27144;BME280;14672;50.250;8.312;2023-07-13T06:14:52;98901.38;;;20.68;51.00
27144;BME280;14672;50.250;8.312;2023-07-13T06:17:18;98904.78;;;20.72;50.53
27144;BME280;14672;50.250;8.312;2023-07-13T06:19:44;98908.69;;;20.97;50.23
27144;BME280;14672;50.250;8.312;2023-07-13T06:22:12;98909.16;;;21.06;49.58
27144;BME280;14672;50.250;8.312;2023-07-13T06:24:41;98915.47;;;21.16;49.09
27144;BME280;14672;50.250;8.312;2023-07-13T06:27:07;98904.72;;;20.94;48.70
27144;BME280;14672;50.250;8.312;2023-07-13T06:29:33;98904.88;;;21.35;48.83
27144;BME280;14672;50.250;8.312;2023-07-13T06:31:58;98903.78;;;21.49;48.80
27144;BME280;14672;50.250;8.312;2023-07-13T06:34:24;98913.69;;;21.60;48.63
27144;BME280;14672;50.250;8.312;2023-07-13T06:36:52;98914.22;;;21.64;48.16
27144;BME280;14672;50.250;8.312;2023-07-13T06:39:21;98906.78;;;21.74;48.06
27144;BME280;14672;50.250;8.312;2023-07-13T06:41:47;98913.56;;;21.82;48.12
27144;BME280;14672;50.250;8.312;2023-07-13T06:44:12;98908.78;;;21.90;47.87
27144;BME280;14672;50.250;8.312;2023-07-13T06:46:38;98910.94;;;21.84;46.63
27144;BME280;14672;50.250;8.312;2023-07-13T06:49:04;98910.09;;;21.94;46.09
27144;BME280;14672;50.250;8.312;2023-07-13T06:51:30;98927.09;;;22.09;46.08
27144;BME280;14672;50.250;8.312;2023-07-13T06:53:55;98932.63;;;22.07;44.95
27144;BME280;14672;50.250;8.312;2023-07-13T06:56:21;98936.28;;;22.13;44.76
27144;BME280;14672;50.250;8.312;2023-07-13T06:58:47;98924.34;;;22.22;44.78
27144;BME280;14672;50.250;8.312;2023-07-13T07:01:13;98922.22;;;22.28;44.53
27144;BME280;14672;50.250;8.312;2023-07-13T07:03:38;98920.13;;;22.29;44.39
27144;BME280;14672;50.250;8.312;2023-07-13T07:06:17;98930.50;;;22.43;44.46
27144;BME280;14672;50.250;8.312;2023-07-13T07:08:43;98918.31;;;22.56;44.31
27144;BME280;14672;50.250;8.312;2023-07-13T07:11:18;98930.47;;;22.48;43.16
27144;BME280;14672;50.250;8.312;2023-07-13T07:13:44;98930.81;;;22.39;42.99
27144;BME280;14672;50.250;8.312;2023-07-13T07:16:10;98933.38;;;22.48;43.21
27144;BME280;14672;50.250;8.312;2023-07-13T07:18:36;98943.41;;;22.42;43.28
27144;BME280;14672;50.250;8.312;2023-07-13T07:21:02;98932.25;;;22.57;43.08
27144;BME280;14672;50.250;8.312;2023-07-13T07:23:28;98931.09;;;22.71;43.19
27144;BME280;14672;50.250;8.312;2023-07-13T07:25:54;98936.47;;;22.56;42.44
27144;BME280;14672;50.250;8.312;2023-07-13T07:28:20;98935.56;;;22.72;42.42
27144;BME280;14672;50.250;8.312;2023-07-13T07:30:47;98938.47;;;22.72;42.46
27144;BME280;14672;50.250;8.312;2023-07-13T07:33:14;98938.19;;;22.70;42.09
27144;BME280;14672;50.250;8.312;2023-07-13T07:35:40;98938.22;;;22.94;42.40
27144;BME280;14672;50.250;8.312;2023-07-13T07:38:06;98929.97;;;23.04;42.27
27144;BME280;14672;50.250;8.312;2023-07-13T07:40:40;98934.72;;;23.02;42.18
27144;BME280;14672;50.250;8.312;2023-07-13T07:43:08;98937.44;;;23.18;41.88
27144;BME280;14672;50.250;8.312;2023-07-13T07:45:35;98930.53;;;23.21;41.38
27144;BME280;14672;50.250;8.312;2023-07-13T07:48:07;98935.97;;;23.30;42.26
27144;BME280;14672;50.250;8.312;2023-07-13T07:50:35;98934.81;;;23.39;41.82
27144;BME280;14672;50.250;8.312;2023-07-13T07:53:01;98941.00;;;23.54;42.16
27144;BME280;14672;50.250;8.312;2023-07-13T07:55:27;98926.91;;;23.39;41.59
27144;BME280;14672;50.250;8.312;2023-07-13T07:57:54;98940.09;;;23.40;41.71
27144;BME280;14672;50.250;8.312;2023-07-13T08:00:20;98940.31;;;23.67;41.85
27144;BME280;14672;50.250;8.312;2023-07-13T08:02:46;98928.22;;;23.81;41.97
27144;BME280;14672;50.250;8.312;2023-07-13T08:05:11;98933.72;;;23.85;40.92
27144;BME280;14672;50.250;8.312;2023-07-13T08:07:38;98942.25;;;23.77;40.87
27144;BME280;14672;50.250;8.312;2023-07-13T08:10:08;98947.38;;;23.90;39.91
27144;BME280;14672;50.250;8.312;2023-07-13T08:12:39;98943.88;;;23.54;39.91
27144;BME280;14672;50.250;8.312;2023-07-13T08:15:12;98932.91;;;23.66;39.98
27144;BME280;14672;50.250;8.312;2023-07-13T08:17:38;98934.66;;;23.56;39.72
27144;BME280;14672;50.250;8.312;2023-07-13T08:20:08;98939.81;;;23.63;39.87
27144;BME280;14672;50.250;8.312;2023-07-13T08:22:37;98931.59;;;23.67;40.16
27144;BME280;14672;50.250;8.312;2023-07-13T08:25:03;98931.28;;;23.89;40.34
27144;BME280;14672;50.250;8.312;2023-07-13T08:27:29;98934.50;;;23.85;40.18
27144;BME280;14672;50.250;8.312;2023-07-13T08:29:55;98933.16;;;23.86;39.59
27144;BME280;14672;50.250;8.312;2023-07-13T08:32:22;98941.56;;;23.90;39.36
27144;BME280;14672;50.250;8.312;2023-07-13T08:34:51;98943.25;;;23.61;39.46
27144;BME280;14672;50.250;8.312;2023-07-13T08:37:17;98939.34;;;23.77;39.15
27144;BME280;14672;50.250;8.312;2023-07-13T08:39:43;98940.31;;;23.67;39.26
27144;BME280;14672;50.250;8.312;2023-07-13T08:42:37;98938.97;;;23.68;38.60
27144;BME280;14672;50.250;8.312;2023-07-13T08:45:30;98933.03;;;23.79;38.40
27144;BME280;14672;50.250;8.312;2023-07-13T08:48:11;98932.53;;;23.94;38.38
27144;BME280;14672;50.250;8.312;2023-07-13T08:53:49;98926.34;;;24.21;38.29
27144;BME280;14672;50.250;8.312;2023-07-13T08:56:20;98921.00;;;24.25;37.81
27144;BME280;14672;50.250;8.312;2023-07-13T08:58:53;98917.78;;;24.10;37.72
27144;BME280;14672;50.250;8.312;2023-07-13T09:01:38;98933.41;;;24.07;37.41
27144;BME280;14672;50.250;8.312;2023-07-13T09:04:16;98933.41;;;24.07;37.54
27144;BME280;14672;50.250;8.312;2023-07-13T09:09:46;98930.34;;;24.18;37.59
27144;BME280;14672;50.250;8.312;2023-07-13T09:12:18;98923.69;;;24.23;37.83
27144;BME280;14672;50.250;8.312;2023-07-13T09:14:53;98931.06;;;24.24;37.21
27144;BME280;14672;50.250;8.312;2023-07-13T09:17:41;98952.28;;;24.32;37.24
27144;BME280;14672;50.250;8.312;2023-07-13T09:20:27;98931.09;;;24.38;37.08
27144;BME280;14672;50.250;8.312;2023-07-13T09:22:56;98925.66;;;24.15;37.27
27144;BME280;14672;50.250;8.312;2023-07-13T09:28:15;98927.50;;;24.31;37.12
27144;BME280;14672;50.250;8.312;2023-07-13T09:30:56;98927.97;;;24.36;37.07
27144;BME280;14672;50.250;8.312;2023-07-13T09:33:24;98928.94;;;24.57;37.17
27144;BME280;14672;50.250;8.312;2023-07-13T09:35:50;98924.69;;;24.58;36.93
27144;BME280;14672;50.250;8.312;2023-07-13T09:38:19;98920.78;;;24.68;36.62
27144;BME280;14672;50.250;8.312;2023-07-13T09:41:23;98918.59;;;24.74;37.04
27144;BME280;14672;50.250;8.312;2023-07-13T09:44:14;98920.72;;;24.74;36.25
27144;BME280;14672;50.250;8.312;2023-07-13T09:46:47;98945.03;;;24.58;36.65
27144;BME280;14672;50.250;8.312;2023-07-13T09:49:18;98922.28;;;24.75;35.95
27144;BME280;14672;50.250;8.312;2023-07-13T09:51:44;98919.13;;;24.73;35.97
27144;BME280;14672;50.250;8.312;2023-07-13T09:54:24;98910.72;;;24.88;35.86
27144;BME280;14672;50.250;8.312;2023-07-13T09:56:59;98912.84;;;24.88;35.96
27144;BME280;14672;50.250;8.312;2023-07-13T09:59:37;98917.06;;;24.87;36.55
27144;BME280;14672;50.250;8.312;2023-07-13T10:02:33;98919.44;;;24.88;36.47
27144;BME280;14672;50.250;8.312;2023-07-13T10:05:04;98910.72;;;25.01;35.79
27144;BME280;14672;50.250;8.312;2023-07-13T10:07:40;98913.53;;;25.07;36.08
27144;BME280;14672;50.250;8.312;2023-07-13T10:10:20;98922.81;;;25.18;35.74
27144;BME280;14672;50.250;8.312;2023-07-13T10:12:50;98915.88;;;25.35;35.43
27144;BME280;14672;50.250;8.312;2023-07-13T10:15:21;98920.34;;;25.22;35.02
27144;BME280;14672;50.250;8.312;2023-07-13T10:17:47;98914.53;;;25.22;35.24
27144;BME280;14672;50.250;8.312;2023-07-13T10:20:14;98912.53;;;25.31;35.63
27144;BME280;14672;50.250;8.312;2023-07-13T10:22:55;98905.34;;;25.45;34.98
27144;BME280;14672;50.250;8.312;2023-07-13T10:25:25;98904.44;;;25.50;35.50
27144;BME280;14672;50.250;8.312;2023-07-13T10:28:02;98912.72;;;25.33;34.73
27144;BME280;14672;50.250;8.312;2023-07-13T10:30:35;98911.06;;;25.37;34.93
27144;BME280;14672;50.250;8.312;2023-07-13T10:33:11;98920.56;;;25.51;33.87
27144;BME280;14672;50.250;8.312;2023-07-13T10:35:42;98893.72;;;25.58;33.90
27144;BME280;14672;50.250;8.312;2023-07-13T10:38:15;98897.84;;;25.76;33.98
27144;BME280;14672;50.250;8.312;2023-07-13T10:41:05;98905.72;;;25.88;34.24
27144;BME280;14672;50.250;8.312;2023-07-13T10:43:43;98894.78;;;26.15;34.52
27144;BME280;14672;50.250;8.312;2023-07-13T10:46:14;98889.63;;;26.21;33.46
27144;BME280;14672;50.250;8.312;2023-07-13T10:48:43;98899.31;;;26.03;34.00
27144;BME280;14672;50.250;8.312;2023-07-13T10:51:13;98893.63;;;25.97;33.35
27144;BME280;14672;50.250;8.312;2023-07-13T10:53:40;98891.53;;;26.18;33.34
27144;BME280;14672;50.250;8.312;2023-07-13T10:56:23;98896.69;;;26.12;33.07
27144;BME280;14672;50.250;8.312;2023-07-13T10:59:25;98897.59;;;26.21;33.51
27144;BME280;14672;50.250;8.312;2023-07-13T11:04:48;98917.25;;;26.28;32.61
27144;BME280;14672;50.250;8.312;2023-07-13T11:07:28;98907.38;;;25.97;32.51
27144;BME280;14672;50.250;8.312;2023-07-13T11:10:03;98912.63;;;26.11;32.57
27144;BME280;14672;50.250;8.312;2023-07-13T11:12:53;98896.97;;;26.01;32.85
27144;BME280;14672;50.250;8.312;2023-07-13T11:15:48;98907.00;;;26.27;32.79
27144;BME280;14672;50.250;8.312;2023-07-13T11:18:23;98905.84;;;26.30;32.44
27144;BME280;14672;50.250;8.312;2023-07-13T11:20:51;98888.13;;;26.28;32.41
27144;BME280;14672;50.250;8.312;2023-07-13T11:23:30;98902.66;;;26.41;32.98
27144;BME280;14672;50.250;8.312;2023-07-13T11:25:57;98900.03;;;26.71;32.93
27144;BME280;14672;50.250;8.312;2023-07-13T11:28:25;98906.00;;;26.86;33.10
27144;BME280;14672;50.250;8.312;2023-07-13T11:36:17;98912.53;;;26.38;32.64
27144;BME280;14672;50.250;8.312;2023-07-13T11:41:53;98904.16;;;26.55;32.53
27144;BME280;14672;50.250;8.312;2023-07-13T11:44:24;98910.34;;;26.51;32.92
27144;BME280;14672;50.250;8.312;2023-07-13T11:46:54;98902.28;;;26.65;32.51
27144;BME280;14672;50.250;8.312;2023-07-13T11:49:23;98900.03;;;26.71;32.55
27144;BME280;14672;50.250;8.312;2023-07-13T11:51:51;98895.31;;;26.68;32.71
27144;BME280;14672;50.250;8.312;2023-07-13T11:54:50;98907.03;;;26.76;33.00
27144;BME280;14672;50.250;8.312;2023-07-13T11:57:37;98907.81;;;26.76;32.83
27144;BME280;14672;50.250;8.312;2023-07-13T12:00:21;98902.22;;;26.57;32.40
27144;BME280;14672;50.250;8.312;2023-07-13T12:02:55;98897.03;;;26.63;32.85
27144;BME280;14672;50.250;8.312;2023-07-13T12:05:26;98909.50;;;26.43;33.25
27144;BME280;14672;50.250;8.312;2023-07-13T12:07:54;98900.16;;;26.45;32.87
27144;BME280;14672;50.250;8.312;2023-07-13T12:13:04;98904.00;;;26.40;33.02
27144;BME280;14672;50.250;8.312;2023-07-13T12:15:44;98908.97;;;26.32;33.08
27144;BME280;14672;50.250;8.312;2023-07-13T12:18:20;98915.56;;;26.32;32.99
27144;BME280;14672;50.250;8.312;2023-07-13T12:20:49;98925.88;;;26.33;33.35
27144;BME280;14672;50.250;8.312;2023-07-13T12:25:52;98909.31;;;26.28;33.53
27144;BME280;14672;50.250;8.312;2023-07-13T12:28:36;98917.50;;;26.16;34.22
27144;BME280;14672;50.250;8.312;2023-07-13T12:31:25;98919.50;;;26.35;34.32
27144;BME280;14672;50.250;8.312;2023-07-13T12:34:20;98923.69;;;26.47;34.34
27144;BME280;14672;50.250;8.312;2023-07-13T12:36:56;98922.66;;;26.24;34.76
27144;BME280;14672;50.250;8.312;2023-07-13T12:42:26;98920.28;;;26.35;34.81
27144;BME280;14672;50.250;8.312;2023-07-13T12:45:18;98928.66;;;26.59;34.44
27144;BME280;14672;50.250;8.312;2023-07-13T12:48:03;98933.63;;;26.31;34.20
27144;BME280;14672;50.250;8.312;2023-07-13T12:50:43;98930.22;;;26.19;34.29
27144;BME280;14672;50.250;8.312;2023-07-13T12:53:21;98931.22;;;26.42;34.29
27144;BME280;14672;50.250;8.312;2023-07-13T12:55:56;98930.94;;;26.53;34.53
27144;BME280;14672;50.250;8.312;2023-07-13T13:00:56;98934.41;;;26.52;34.73
27144;BME280;14672;50.250;8.312;2023-07-13T13:03:40;98945.66;;;26.48;33.97
27144;BME280;14672;50.250;8.312;2023-07-13T13:08:54;98948.28;;;26.38;34.25
27144;BME280;14672;50.250;8.312;2023-07-13T13:11:22;98939.88;;;26.55;34.32
27144;BME280;14672;50.250;8.312;2023-07-13T13:13:49;98947.59;;;26.66;34.38
27144;BME280;14672;50.250;8.312;2023-07-13T13:16:34;98939.69;;;26.53;34.63
27144;BME280;14672;50.250;8.312;2023-07-13T13:19:20;98938.00;;;26.58;34.50
27144;BME280;14672;50.250;8.312;2023-07-13T13:21:50;98946.31;;;26.54;34.56
27144;BME280;14672;50.250;8.312;2023-07-13T13:24:21;98956.19;;;26.51;34.19
27144;BME280;14672;50.250;8.312;2023-07-13T13:26:50;98958.31;;;26.71;34.42
27144;BME280;14672;50.250;8.312;2023-07-13T13:29:22;98952.69;;;26.73;34.40
27144;BME280;14672;50.250;8.312;2023-07-13T13:31:53;98963.81;;;26.75;34.30
27144;BME280;14672;50.250;8.312;2023-07-13T13:34:21;98961.31;;;26.58;34.24
27144;BME280;14672;50.250;8.312;2023-07-13T13:36:49;98977.88;;;26.63;34.12
27144;BME280;14672;50.250;8.312;2023-07-13T13:39:22;98961.81;;;26.36;34.25
27144;BME280;14672;50.250;8.312;2023-07-13T13:41:51;98963.56;;;26.18;34.49
27144;BME280;14672;50.250;8.312;2023-07-13T13:44:18;98955.69;;;26.39;34.58
27144;BME280;14672;50.250;8.312;2023-07-13T13:46:55;98957.72;;;26.18;34.03
27144;BME280;14672;50.250;8.312;2023-07-13T13:49:24;98969.94;;;26.30;34.03
27144;BME280;14672;50.250;8.312;2023-07-13T13:51:52;98965.19;;;26.40;34.04